Time;durP1;ratioP1;P1;durP2;ratioP2;P2;SDS_P1;SDS_P2;PMS_P1;PMS_P2;Temp;Humidity;BMP_temperature;BMP_pressure;BME280_temperature;BME280_humidity;BME280_pressure;Samples;Min_cycle;Max_cycle;Signal;HPM_P1;HPM_P2
2022/03/24 00:02:04;;;;;;;10.93;8.20;;;;;;;9.16;41.32;99885.06;6955385;28;20214;-85
2022/03/24 00:05:26;;;;;;;12.03;8.63;;;;;;;9.01;42.05;99907.44;6953876;28;20231;-85
2022/03/24 00:08:48;;;;;;;12.07;9.10;;;;;;;9.28;40.79;99906.03;6953255;28;20238;-86
2022/03/24 00:12:12;;;;;;;13.30;9.03;;;;;;;9.38;40.47;99917.47;6954182;28;20656;-85
2022/03/24 00:15:34;;;;;;;11.30;8.87;;;;;;;8.98;41.45;99897.00;6954192;28;20237;-85
2022/03/24 00:18:55;;;;;;;13.37;8.80;;;;;;;8.98;41.91;99915.81;6954730;28;20243;-83
2022/03/24 00:22:17;;;;;;;16.87;9.47;;;;;;;8.86;42.25;99915.31;6954663;28;20760;-84
2022/03/24 00:25:38;;;;;;;12.87;8.90;;;;;;;9.15;41.69;99915.66;6953910;28;20203;-84
2022/03/24 00:29:02;;;;;;;13.20;9.40;;;;;;;9.11;40.92;99882.84;6954992;28;20310;-84
2022/03/24 00:32:24;;;;;;;10.00;7.97;;;;;;;8.73;42.45;99909.56;6954852;28;20238;-84
2022/03/24 00:35:45;;;;;;;11.27;9.57;;;;;;;8.35;43.39;99866.34;6954847;28;20264;-83
2022/03/24 00:39:07;;;;;;;10.23;9.10;;;;;;;8.47;43.66;99905.34;6955032;28;20227;-84
2022/03/24 00:42:29;;;;;;;12.10;9.37;;;;;;;8.66;42.82;99887.06;6953862;28;20230;-84
2022/03/24 00:45:52;;;;;;;11.70;9.13;;;;;;;8.75;42.70;99902.22;6953769;28;20277;-84
2022/03/24 00:49:14;;;;;;;12.67;9.57;;;;;;;8.79;42.08;99884.72;6954241;28;20233;-84
2022/03/24 00:52:42;;;;;;;11.73;9.00;;;;;;;8.69;42.37;99854.47;6954776;28;20211;-83
2022/03/24 00:56:04;;;;;;;11.83;9.30;;;;;;;8.00;44.28;99893.41;6954352;28;20609;-84
2022/03/24 00:59:26;;;;;;;13.53;10.50;;;;;;;8.15;44.17;99887.28;6954158;28;20250;-84
2022/03/24 01:02:51;;;;;;;13.07;9.83;;;;;;;8.31;44.01;99876.59;6953999;28;20226;-84
2022/03/24 01:06:16;;;;;;;13.93;10.40;;;;;;;8.49;44.23;99890.72;6953732;28;20203;-84
2022/03/24 01:09:38;;;;;;;15.30;10.87;;;;;;;7.95;43.86;99799.94;6954702;28;20319;-84
2022/03/24 01:13:00;;;;;;;13.50;10.53;;;;;;;8.21;43.77;99881.28;6954602;28;20249;-84
2022/03/24 01:16:23;;;;;;;12.03;10.37;;;;;;;8.27;43.40;99872.56;6953050;28;20287;-84
2022/03/24 01:19:46;;;;;;;13.30;9.70;;;;;;;8.04;44.62;99878.66;6951730;28;20237;-86
2022/03/24 01:23:07;;;;;;;11.67;9.47;;;;;;;8.05;44.89;99880.34;6948176;28;20214;-85
2022/03/24 01:26:29;;;;;;;12.90;10.83;;;;;;;7.93;45.00;99878.97;6951602;28;20300;-85
2022/03/24 01:29:51;;;;;;;13.70;11.00;;;;;;;8.18;44.79;99865.44;6957131;28;20233;-86
2022/03/24 01:33:12;;;;;;;13.50;10.00;;;;;;;8.02;43.98;99838.53;6962204;28;20287;-86
2022/03/24 01:36:35;;;;;;;14.80;10.53;;;;;;;7.96;44.67;99867.91;6960186;28;20216;-86
2022/03/24 01:39:56;;;;;;;13.07;9.90;;;;;;;7.90;44.98;99877.44;6960786;28;20226;-86
2022/03/24 01:43:19;;;;;;;15.10;10.40;;;;;;;7.97;44.72;99858.84;6960643;28;20251;-86
2022/03/24 01:46:54;;;;;;;15.57;10.57;;;;;;;7.96;44.37;99860.69;6960314;28;20207;-86
2022/03/24 01:50:16;;;;;;;17.43;11.60;;;;;;;8.18;43.91;99865.44;6960833;28;20202;-86
2022/03/24 01:53:39;;;;;;;15.13;11.80;;;;;;;8.63;42.70;99855.16;6960877;28;20227;-86
2022/03/24 01:57:01;;;;;;;17.27;11.90;;;;;;;8.30;43.44;99861.47;6960399;28;20242;-86
2022/03/24 02:00:22;;;;;;;13.87;11.07;;;;;;;7.91;44.37;99865.69;6959677;28;20207;-86
2022/03/24 02:03:45;;;;;;;13.60;10.57;;;;;;;7.95;44.29;99829.47;6959710;28;20262;-86
2022/03/24 02:07:08;;;;;;;16.07;10.90;;;;;;;8.25;43.45;99871.88;6959930;28;20230;-86
2022/03/24 02:10:33;;;;;;;15.80;10.73;;;;;;;7.77;44.81;99866.31;6960891;28;20218;-85
2022/03/24 02:13:55;;;;;;;14.90;10.87;;;;;;;7.78;45.19;99867.19;6959878;28;20226;-86
2022/03/24 02:17:19;;;;;;;12.93;10.57;;;;;;;7.81;44.87;99846.22;6959431;28;20243;-86
2022/03/24 02:20:41;;;;;;;16.17;11.53;;;;;;;7.79;45.08;99858.94;6961079;28;20214;-86
2022/03/24 02:24:04;;;;;;;14.57;10.60;;;;;;;7.34;45.84;99825.34;6960282;28;20203;-85
2022/03/24 02:27:26;;;;;;;14.77;11.03;;;;;;;7.39;46.62;99860.59;6960232;28;20215;-87
2022/03/24 02:30:50;;;;;;;16.37;11.77;;;;;;;7.20;45.98;99834.84;6960844;28;20591;-86
2022/03/24 02:37:52;;;;;;;18.87;11.20;;;;;;;7.48;46.00;99851.59;6961435;28;20250;-86
2022/03/24 02:41:15;;;;;;;14.73;10.97;;;;;;;7.43;44.73;99779.63;6962048;28;20209;-86
2022/03/24 02:44:37;;;;;;;15.00;11.57;;;;;;;7.97;44.83;99858.84;6962372;28;20222;-85
2022/03/24 02:47:59;;;;;;;16.60;11.30;;;;;;;7.67;45.37;99860.22;6962043;28;20991;-86
2022/03/24 02:51:21;;;;;;;18.17;11.37;;;;;;;6.91;46.20;99770.00;6961544;28;20316;-86
2022/03/24 02:54:43;;;;;;;15.53;10.87;;;;;;;7.31;45.30;99847.97;6962459;28;20215;-85
2022/03/24 03:01:54;;;;;;;15.93;11.13;;;;;;;7.17;46.47;99847.72;6966807;28;20211;-86
2022/03/24 03:05:16;;;;;;;15.10;10.80;;;;;;;7.39;46.38;99876.69;6965972;28;20203;-85
2022/03/24 03:08:38;;;;;;;15.83;11.40;;;;;;;7.08;46.55;99846.81;6966061;28;20234;-86
2022/03/24 03:12:00;;;;;;;13.53;10.87;;;;;;;7.33;46.43;99866.59;6967128;28;20199;-86
2022/03/24 03:15:23;;;;;;;15.27;10.93;;;;;;;7.30;46.34;99872.31;6967455;28;20231;-86
2022/03/24 03:18:45;;;;;;;15.23;11.80;;;;;;;7.17;45.94;99831.63;6966978;28;20240;-86
2022/03/24 03:22:08;;;;;;;17.63;11.87;;;;;;;7.25;46.24;99867.38;6967418;28;20210;-86
2022/03/24 03:25:29;;;;;;;16.80;13.20;;;;;;;7.53;46.00;99870.72;6966791;28;20210;-85
2022/03/24 03:28:52;;;;;;;15.03;11.70;;;;;;;6.99;46.22;99812.94;6966772;28;20223;-86
2022/03/24 03:32:15;;;;;;;17.20;13.17;;;;;;;7.35;46.40;99870.81;6966210;28;20231;-86
2022/03/24 03:35:37;;;;;;;18.33;13.43;;;;;;;7.29;45.45;99831.22;6967435;28;20227;-86
2022/03/24 03:39:09;;;;;;;17.70;11.90;;;;;;;7.61;45.60;99873.47;6963727;28;20233;-86
2022/03/24 03:42:30;;;;;;;19.10;13.10;;;;;;;7.34;46.23;99879.88;6964536;28;20194;-86
2022/03/24 03:45:52;;;;;;;16.17;12.40;;;;;;;7.17;47.00;99875.41;6965568;28;20211;-86
2022/03/24 03:49:16;;;;;;;19.27;13.20;;;;;;;7.24;46.46;99886.34;6963610;28;20237;-88
2022/03/24 03:52:37;;;;;;;17.03;11.80;;;;;;;7.44;46.63;99869.00;6956666;28;20229;-89
2022/03/24 03:55:59;;;;;;;18.07;12.67;;;;;;;6.98;46.45;99815.75;6956328;28;20238;-88
2022/03/24 03:59:21;;;;;;;21.00;13.93;;;;;;;7.07;46.70;99877.31;6957190;28;20230;-88
2022/03/24 04:02:43;;;;;;;23.83;14.23;;;;;;;6.92;47.45;99875.38;6958051;28;20216;-87
2022/03/24 04:06:08;;;;;;;19.23;13.00;;;;;;;6.16;48.47;99807.25;6957355;28;20229;-88
2022/03/24 04:09:30;;;;;;;18.03;13.40;;;;;;;6.35;48.27;99823.16;6957645;28;20626;-87
2022/03/24 04:12:51;;;;;;;17.83;13.10;;;;;;;6.56;48.87;99879.94;6957643;28;20199;-88
2022/03/24 04:16:13;;;;;;;18.17;12.37;;;;;;;6.02;49.45;99877.34;6957104;28;20242;-87
2022/03/24 04:19:35;;;;;;;19.03;13.57;;;;;;;6.53;49.07;99876.69;6958265;28;20285;-87
2022/03/24 04:23:01;;;;;;;20.07;13.53;;;;;;;6.99;47.97;99882.63;6955999;28;20305;-87
2022/03/24 04:26:23;;;;;;;16.40;13.13;;;;;;;6.55;48.32;99877.41;6953862;28;20266;-87
2022/03/24 04:29:44;;;;;;;17.73;13.13;;;;;;;6.70;47.30;99816.91;6954338;28;20310;-87
2022/03/24 04:33:06;;;;;;;18.87;13.23;;;;;;;7.17;47.08;99869.19;6954237;28;20360;-86
2022/03/24 04:36:28;;;;;;;16.20;13.17;;;;;;;7.21;47.08;99886.66;6953903;28;20682;-87
2022/03/24 04:39:50;;;;;;;18.33;13.50;;;;;;;6.79;46.94;99805.25;6951309;28;20231;-85
2022/03/24 04:43:13;;;;;;;18.20;13.10;;;;;;;6.92;47.46;99878.06;6950209;28;20234;-87
2022/03/24 04:46:34;;;;;;;20.50;13.00;;;;;;;6.76;47.38;99856.47;6953628;28;20199;-88
2022/03/24 04:49:56;;;;;;;19.50;12.70;;;;;;;6.90;47.69;99894.28;6955453;28;20262;-87
2022/03/24 04:53:18;;;;;;;20.10;13.43;;;;;;;6.17;47.97;99797.34;6957979;28;20191;-87
2022/03/24 04:56:41;;;;;;;23.70;14.33;;;;;;;6.73;48.15;99888.97;6958000;28;20202;-88
2022/03/24 05:00:04;;;;;;;21.30;14.47;;;;;;;6.46;48.32;99867.59;6960586;28;20230;-87
2022/03/24 05:13:39;;;;;;;23.10;15.50;;;;;;;6.61;48.05;99909.78;6799162;28;20708;-85
2022/03/24 05:17:17;;;;;;;19.80;13.63;;;;;;;6.73;47.77;99892.47;6946783;28;20234;-89
2022/03/24 05:21:06;;;;;;;21.00;15.30;;;;;;;6.59;48.25;99906.41;6957161;28;20206;-86
2022/03/24 05:24:56;;;;;;;17.47;12.73;;;;;;;7.02;46.47;99909.13;6948489;28;20207;-89
2022/03/24 05:28:18;;;;;;;17.83;13.43;;;;;;;6.37;47.26;99841.75;6955622;28;20229;-85
2022/03/24 05:32:26;;;;;;;21.40;13.87;;;;;;;6.41;48.18;99908.25;6945790;28;20207;-86
2022/03/24 05:39:58;;;;;;;19.90;15.20;;;;;;;6.56;48.02;99904.06;6934779;23;20258;-71
2022/03/24 05:43:27;;;;;;;19.10;14.73;;;;;;;6.48;48.52;99909.31;6910165;28;20251;-77
2022/03/24 05:46:49;;;;;;;20.10;13.20;;;;;;;6.48;48.54;99920.03;6912823;28;20758;-71
2022/03/24 05:50:12;;;;;;;19.20;14.57;;;;;;;6.32;49.41;99902.97;6913110;28;20212;-70
2022/03/24 05:53:34;;;;;;;27.90;15.43;;;;;;;6.55;49.16;99912.25;6914448;28;20242;-71
2022/03/24 05:56:57;;;;;;;21.33;14.33;;;;;;;6.16;48.82;99874.19;6914492;28;20212;-70
2022/03/24 06:00:19;;;;;;;20.83;13.83;;;;;;;6.56;48.76;99911.25;6914285;28;20222;-71
2022/03/24 06:03:42;;;;;;;20.93;14.20;;;;;;;6.52;49.01;99924.09;6906060;28;20232;-70
2022/03/24 06:07:05;;;;;;;22.93;14.87;;;;;;;6.77;48.61;99920.66;6912023;28;20261;-70
2022/03/24 06:10:27;;;;;;;19.40;14.87;;;;;;;7.24;47.78;99921.22;6915010;28;20212;-70
2022/03/24 06:13:49;;;;;;;20.83;14.30;;;;;;;6.98;47.48;99920.31;6917595;28;20232;-70
2022/03/24 06:17:11;;;;;;;19.37;14.63;;;;;;;7.14;47.96;99915.91;6905689;28;20654;-70
2022/03/24 06:20:33;;;;;;;18.00;13.90;;;;;;;7.31;47.17;99857.88;6901125;28;20208;-70
2022/03/24 06:23:55;;;;;;;21.37;13.83;;;;;;;8.09;45.87;99908.56;6895541;28;20558;-71
2022/03/24 06:27:18;;;;;;;20.57;14.63;;;;;;;8.36;45.93;99916.44;6891030;28;20205;-71
2022/03/24 06:30:41;;;;;;;20.27;14.00;;;;;;;8.26;45.06;99810.94;6891141;28;20219;-70
2022/03/24 06:34:03;;;;;;;21.50;14.20;;;;;;;9.13;44.41;99913.13;6897169;28;20704;-71
2022/03/24 06:37:26;;;;;;;19.37;13.70;;;;;;;8.61;43.87;99841.00;6917702;28;20606;-70
2022/03/24 06:40:48;;;;;;;21.50;14.27;;;;;;;8.97;43.33;99820.00;6917831;28;20211;-71
2022/03/24 06:44:10;;;;;;;21.97;14.50;;;;;;;9.49;42.77;99883.97;6917645;28;20220;-71
2022/03/24 06:47:33;;;;;;;19.50;14.00;;;;;;;10.45;41.42;99913.25;6917238;28;20212;-71
2022/03/24 06:50:55;;;;;;;19.73;13.67;;;;;;;9.43;42.19;99810.13;6917801;28;20620;-71
2022/03/24 06:54:17;;;;;;;22.17;14.90;;;;;;;10.40;41.99;99921.84;6917619;28;20232;-71
2022/03/24 06:57:39;;;;;;;18.97;14.20;;;;;;;10.60;41.51;99949.22;6917374;28;20234;-71
2022/03/24 07:01:00;;;;;;;19.30;14.70;;;;;;;10.83;41.37;99913.16;6917369;28;20236;-71
2022/03/24 07:04:24;;;;;;;22.27;13.73;;;;;;;10.11;40.26;99768.06;6917440;28;20200;-71
2022/03/24 07:07:46;;;;;;;17.97;13.90;;;;;;;11.34;39.84;99911.56;6916920;28;20568;-71
2022/03/24 07:11:08;;;;;;;18.87;14.77;;;;;;;11.61;39.43;99928.00;6906807;28;20208;-72
2022/03/24 07:14:30;;;;;;;18.53;14.13;;;;;;;11.90;38.76;99898.31;6890440;28;20290;-71
2022/03/24 07:17:51;;;;;;;22.57;14.97;;;;;;;11.30;38.93;99818.44;6889613;28;20201;-72
2022/03/24 07:21:15;;;;;;;18.30;14.77;;;;;;;12.05;38.60;99919.94;6890501;28;20212;-71
2022/03/24 07:24:36;;;;;;;22.93;14.90;;;;;;;11.81;38.66;99795.91;6889743;28;20298;-72
2022/03/24 07:27:58;;;;;;;18.23;14.47;;;;;;;12.59;37.31;99869.81;6889643;28;20249;-72
2022/03/24 07:31:22;;;;;;;19.30;14.23;;;;;;;12.53;36.99;99795.69;6889730;28;20228;-72
2022/03/24 07:34:44;;;;;;;18.23;14.33;;;;;;;13.31;37.39;99906.56;6889912;28;20699;-72
2022/03/24 07:38:09;;;;;;;17.93;13.90;;;;;;;13.22;36.94;99818.38;6889596;28;20575;-72
2022/03/24 07:41:32;;;;;;;16.83;13.67;;;;;;;13.83;36.45;99915.94;6889552;28;20673;-72
2022/03/24 07:44:54;;;;;;;15.30;13.37;;;;;;;13.91;35.96;99871.53;6889024;28;20238;-72
2022/03/24 07:48:18;;;;;;;19.37;14.37;;;;;;;14.58;35.63;99911.31;6890152;28;20200;-72
2022/03/24 07:51:39;;;;;;;15.63;13.93;;;;;;;14.50;35.16;99914.22;6888148;28;20218;-72
2022/03/24 07:55:08;;;;;;;17.40;13.57;;;;;;;15.01;34.52;99915.41;6889348;28;20227;-72
2022/03/24 07:58:29;;;;;;;19.33;13.93;;;;;;;15.08;34.31;99909.97;6888953;28;20211;-72
2022/03/24 08:01:51;;;;;;;17.40;12.80;;;;;;;15.28;33.84;99870.06;6888882;28;20275;-72
2022/03/24 08:05:13;;;;;;;18.57;14.20;;;;;;;15.50;33.45;99896.84;6889416;28;20302;-72
2022/03/24 08:08:34;;;;;;;15.67;13.37;;;;;;;15.92;32.91;99907.25;6888762;28;20215;-72
2022/03/24 08:11:57;;;;;;;15.53;13.80;;;;;;;15.96;32.24;99823.34;6888789;28;20215;-72
2022/03/24 08:15:19;;;;;;;19.13;13.60;;;;;;;15.41;32.72;99827.47;6888839;28;20224;-72
2022/03/24 08:18:41;;;;;;;19.80;14.07;;;;;;;15.98;32.71;99908.31;6888286;28;20224;-72
2022/03/24 08:22:02;;;;;;;17.70;15.23;;;;;;;15.79;31.92;99819.41;6888686;28;20209;-72
2022/03/24 08:25:24;;;;;;;21.60;14.53;;;;;;;16.63;30.59;99818.22;6888700;28;20231;-72
2022/03/24 08:28:47;;;;;;;18.83;14.63;;;;;;;17.25;30.10;99837.22;6888082;28;20701;-72
2022/03/24 08:32:12;;;;;;;16.03;14.13;;;;;;;17.87;29.68;99894.38;6888586;28;20219;-73
2022/03/24 08:35:34;;;;;;;17.00;14.33;;;;;;;18.09;28.13;99817.28;6887500;28;20699;-73
2022/03/24 08:38:56;;;;;;;21.50;14.87;;;;;;;18.76;28.08;99907.19;6887840;28;20256;-72
2022/03/24 08:42:18;;;;;;;18.47;14.80;;;;;;;18.55;27.99;99869.44;6888474;28;20208;-73
2022/03/24 08:45:41;;;;;;;17.10;14.03;;;;;;;18.10;27.86;99813.50;6887124;28;20200;-73
2022/03/24 08:49:03;;;;;;;19.67;13.93;;;;;;;17.98;27.26;99825.41;6888435;28;20231;-73
2022/03/24 08:52:27;;;;;;;20.97;14.33;;;;;;;18.32;27.97;99852.09;6888205;28;20228;-73
2022/03/24 08:55:49;;;;;;;19.53;15.60;;;;;;;18.89;26.73;99852.38;6887796;28;20229;-73
2022/03/24 08:59:10;;;;;;;20.40;15.60;;;;;;;18.58;26.65;99881.81;6887843;28;20216;-73
2022/03/24 09:02:35;;;;;;;19.40;15.60;;;;;;;18.99;27.38;99903.72;6887682;28;20261;-73
2022/03/24 09:05:57;;;;;;;20.63;15.37;;;;;;;19.02;26.16;99895.88;6887634;28;20213;-73
2022/03/24 09:09:20;;;;;;;18.80;15.97;;;;;;;19.10;26.21;99900.19;6887958;28;20216;-73
2022/03/24 09:12:44;;;;;;;22.07;16.63;;;;;;;18.52;26.80;99841.75;6887478;28;20557;-73
2022/03/24 09:16:06;;;;;;;18.27;14.97;;;;;;;18.77;27.35;99899.81;6870106;28;20438;-73
2022/03/24 09:19:30;;;;;;;20.90;17.37;;;;;;;19.24;26.01;99857.94;6887995;28;20219;-73
2022/03/24 09:22:51;;;;;;;20.33;15.83;;;;;;;18.47;26.43;99838.88;6887450;28;20206;-73
2022/03/24 09:26:13;;;;;;;20.50;16.23;;;;;;;19.31;26.78;99813.00;6887257;28;20209;-72
2022/03/24 09:29:36;;;;;;;20.87;16.37;;;;;;;18.51;26.05;99799.94;6887116;28;20294;-73
2022/03/24 09:32:57;;;;;;;20.73;16.37;;;;;;;18.87;25.61;99831.78;6887252;28;20206;-73
2022/03/24 09:36:21;;;;;;;18.10;15.40;;;;;;;19.85;24.67;99858.31;6887352;28;20237;-72
2022/03/24 09:39:43;;;;;;;21.17;15.93;;;;;;;20.02;24.35;99779.84;6886979;28;20266;-73
2022/03/24 09:43:05;;;;;;;20.13;15.97;;;;;;;20.48;23.79;99815.34;6886732;28;20235;-73
2022/03/24 09:46:27;;;;;;;23.40;16.47;;;;;;;21.28;23.58;99864.28;6889102;28;20215;-73
2022/03/24 09:49:49;;;;;;;21.83;16.47;;;;;;;21.04;23.92;99889.38;6892473;28;20220;-73
2022/03/24 09:53:13;;;;;;;20.07;16.70;;;;;;;21.22;22.61;99868.03;6891495;28;20404;-73
2022/03/24 09:56:35;;;;;;;21.20;16.63;;;;;;;21.61;21.84;99889.00;6891913;28;20242;-73
2022/03/24 09:59:57;;;;;;;19.67;16.33;;;;;;;21.43;21.05;99887.34;6892201;28;20255;-73
2022/03/24 10:03:22;;;;;;;21.13;17.20;;;;;;;22.65;21.24;99883.44;6892513;28;20229;-73
2022/03/24 10:06:58;;;;;;;24.40;17.87;;;;;;;21.66;22.26;99837.75;6891725;28;20205;-73
2022/03/24 10:10:25;;;;;;;23.67;17.67;;;;;;;22.37;21.53;99861.59;6891834;28;20287;-73
2022/03/24 10:13:49;;;;;;;22.43;17.47;;;;;;;22.66;21.97;99874.09;6891977;28;20222;-73
2022/03/24 10:17:12;;;;;;;24.07;17.20;;;;;;;21.61;21.61;99823.13;6891542;28;20567;-73
2022/03/24 10:20:34;;;;;;;21.17;17.83;;;;;;;21.38;22.45;99869.97;6891868;28;20235;-73
2022/03/24 10:23:57;;;;;;;23.03;16.87;;;;;;;22.88;21.97;99861.13;6891661;28;20214;-73
2022/03/24 10:27:25;;;;;;;23.57;17.20;;;;;;;23.44;21.06;99863.34;6890960;28;20341;-73
2022/03/24 10:30:47;;;;;;;22.70;18.47;;;;;;;23.03;21.71;99862.13;6891522;28;20249;-73
2022/03/24 10:34:10;;;;;;;20.50;16.97;;;;;;;21.86;22.38;99754.88;6891770;28;20709;-73
2022/03/24 10:37:32;;;;;;;24.63;17.40;;;;;;;22.24;22.48;99821.59;6891119;28;20236;-73
2022/03/24 10:40:54;;;;;;;24.87;18.37;;;;;;;20.38;23.78;99780.38;6891490;28;20572;-73
2022/03/24 10:44:17;;;;;;;20.97;17.17;;;;;;;21.44;23.82;99845.13;6890988;28;20209;-73
2022/03/24 10:47:55;;;;;;;28.20;18.33;;;;;;;22.06;22.47;99856.78;6891196;28;20204;-73
2022/03/24 10:51:24;;;;;;;21.93;17.90;;;;;;;22.88;21.95;99855.59;6890334;28;20486;-73
2022/03/24 10:54:48;;;;;;;22.83;17.00;;;;;;;23.40;21.12;99834.69;6890690;28;20213;-73
2022/03/24 10:58:12;;;;;;;23.97;17.97;;;;;;;23.55;20.72;99801.78;6889996;28;20214;-73
2022/03/24 11:01:35;;;;;;;21.17;17.20;;;;;;;23.83;20.13;99842.72;6890716;28;20232;-73
2022/03/24 11:04:59;;;;;;;20.53;17.40;;;;;;;23.96;20.10;99831.25;6890885;28;20240;-73
2022/03/24 11:08:21;;;;;;;18.87;16.73;;;;;;;23.63;19.29;99719.50;6890278;28;20499;-73
2022/03/24 11:11:43;;;;;;;21.63;17.33;;;;;;;24.06;19.21;99831.34;6890487;28;20704;-73
2022/03/24 11:15:07;;;;;;;20.10;17.23;;;;;;;24.69;18.32;99833.81;6890194;28;20596;-73
2022/03/24 11:18:30;;;;;;;19.77;17.30;;;;;;;24.89;18.24;99822.84;6889909;28;20213;-73
2022/03/24 11:21:53;;;;;;;20.57;16.60;;;;;;;22.28;19.47;99673.53;6890291;28;20311;-73
2022/03/24 11:25:15;;;;;;;18.17;16.27;;;;;;;23.59;18.93;99756.09;6890190;28;20211;-73
2022/03/24 11:28:37;;;;;;;24.10;16.33;;;;;;;24.82;18.24;99820.34;6889763;28;20666;-73
2022/03/24 11:31:59;;;;;;;20.27;17.43;;;;;;;24.63;17.38;99783.34;6889956;28;20675;-73
2022/03/24 11:35:24;;;;;;;18.00;16.10;;;;;;;24.76;18.00;99788.31;6890164;28;20717;-73
2022/03/24 11:38:50;;;;;;;20.07;16.50;;;;;;;24.86;17.41;99780.06;6889290;28;20224;-73
2022/03/24 11:42:12;;;;;;;19.90;17.10;;;;;;;24.11;17.14;99738.47;6889780;28;20204;-73
2022/03/24 11:45:35;;;;;;;18.23;16.27;;;;;;;25.52;16.81;99803.00;6889221;28;20212;-73
2022/03/24 11:49:16;;;;;;;18.47;16.57;;;;;;;25.59;16.75;99784.25;6889340;28;20217;-73
2022/03/24 11:52:39;;;;;;;18.13;16.20;;;;;;;25.81;15.89;99777.28;6889158;28;20204;-73
2022/03/24 11:56:18;;;;;;;17.33;15.53;;;;;;;25.76;15.98;99777.28;6889192;28;20240;-73
2022/03/24 11:59:40;;;;;;;18.23;16.07;;;;;;;25.72;15.72;99775.38;6889270;28;20221;-73
2022/03/24 12:03:02;;;;;;;19.70;15.90;;;;;;;25.96;15.52;99782.78;6888899;28;20241;-73
2022/03/24 12:06:54;;;;;;;15.83;14.13;;;;;;;25.62;14.80;99767.94;6888939;28;20212;-73
2022/03/24 12:10:31;;;;;;;15.97;14.37;;;;;;;25.70;15.51;99755.47;6888025;28;20232;-73
2022/03/24 12:13:56;;;;;;;14.90;13.40;;;;;;;25.69;14.59;99746.34;6889303;28;20223;-73
2022/03/24 12:17:20;;;;;;;15.30;13.27;;;;;;;25.79;14.92;99773.94;6888505;28;20255;-73
2022/03/24 12:20:43;;;;;;;15.83;14.10;;;;;;;25.27;14.90;99748.66;6888923;28;20216;-73
2022/03/24 12:24:09;;;;;;;15.53;13.80;;;;;;;25.51;15.47;99741.44;6888532;28;20223;-73
2022/03/24 12:27:34;;;;;;;18.87;13.63;;;;;;;25.34;16.00;99740.06;6871175;28;20230;-73
2022/03/24 12:31:08;;;;;;;15.67;14.03;;;;;;;25.40;15.55;99733.44;6888688;28;20231;-73
2022/03/24 12:34:31;;;;;;;15.47;13.90;;;;;;;25.11;16.07;99713.84;6888270;28;20211;-73
2022/03/24 12:37:53;;;;;;;14.23;12.90;;;;;;;25.35;15.49;99632.09;6887931;28;20228;-73
2022/03/24 12:41:23;;;;;;;14.70;13.20;;;;;;;26.00;15.42;99702.88;6888301;28;20205;-73
2022/03/24 12:44:52;;;;;;;16.50;14.57;;;;;;;25.31;15.97;99592.34;6887621;28;20706;-73
2022/03/24 12:48:14;;;;;;;15.93;13.83;;;;;;;26.03;14.94;99716.97;6887754;28;20204;-73
2022/03/24 12:51:50;;;;;;;18.40;14.53;;;;;;;26.57;14.67;99711.44;6887882;28;20572;-73
2022/03/24 12:55:20;;;;;;;17.03;14.07;;;;;;;26.38;15.27;99721.50;6887878;28;20209;-73
2022/03/24 12:58:52;;;;;;;14.87;13.37;;;;;;;25.62;16.01;99664.88;6887712;28;20216;-73
2022/03/24 13:02:15;;;;;;;15.80;14.13;;;;;;;25.99;15.14;99704.00;6887831;28;20241;-73
2022/03/24 13:05:38;;;;;;;16.27;14.10;;;;;;;25.71;15.43;99699.13;6887465;28;20207;-73
2022/03/24 13:09:14;;;;;;;13.80;12.40;;;;;;;26.13;14.94;99699.53;6888038;28;20567;-73
2022/03/24 13:12:37;;;;;;;16.73;13.67;;;;;;;25.94;15.43;99707.63;6887559;28;20220;-73
2022/03/24 13:15:59;;;;;;;15.50;13.37;;;;;;;26.13;15.28;99694.78;6887153;28;20353;-73
2022/03/24 13:19:23;;;;;;;17.00;13.73;;;;;;;25.30;15.91;99631.31;6887801;28;20689;-73
2022/03/24 13:22:47;;;;;;;14.40;12.73;;;;;;;26.25;14.91;99691.72;6887557;28;20225;-73
2022/03/24 13:26:09;;;;;;;15.80;13.00;;;;;;;25.91;14.50;99688.00;6887085;28;20234;-73
2022/03/24 13:29:42;;;;;;;15.97;13.27;;;;;;;25.35;15.57;99664.41;6887470;28;20318;-73
2022/03/24 13:33:06;;;;;;;14.70;12.10;;;;;;;24.38;15.47;99642.63;6886213;28;20239;-73
2022/03/24 13:36:31;;;;;;;14.40;12.10;;;;;;;25.05;15.70;99675.47;6887403;28;20233;-73
2022/03/24 13:39:54;;;;;;;14.13;12.20;;;;;;;25.19;14.14;99594.56;6887526;28;20225;-73
2022/03/24 13:43:16;;;;;;;13.53;12.13;;;;;;;25.56;14.81;99630.94;6887236;28;20219;-73
2022/03/24 13:46:39;;;;;;;14.77;12.40;;;;;;;24.40;14.70;99629.38;6886947;28;20208;-73
2022/03/24 13:50:02;;;;;;;17.23;12.73;;;;;;;24.96;15.16;99638.50;6887218;28;20240;-73
2022/03/24 13:53:28;;;;;;;14.40;12.93;;;;;;;25.33;15.32;99656.41;6887185;28;20705;-73
2022/03/24 13:56:51;;;;;;;15.73;13.83;;;;;;;25.07;15.56;99656.72;6886844;28;20238;-73
2022/03/24 14:00:13;;;;;;;14.57;12.97;;;;;;;24.85;14.73;99634.94;6887078;28;20261;-73
2022/03/24 14:03:38;;;;;;;14.67;13.17;;;;;;;24.62;14.69;99585.03;6886961;28;20299;-73
2022/03/24 14:07:05;;;;;;;13.67;11.80;;;;;;;24.12;15.11;99631.84;6887405;28;20682;-73
2022/03/24 14:11:04;;;;;;;13.33;12.03;;;;;;;24.51;14.80;99595.22;6886895;28;20222;-73
2022/03/24 14:14:26;;;;;;;13.00;11.80;;;;;;;24.63;14.20;99592.19;6886866;28;20280;-73
2022/03/24 14:18:14;;;;;;;12.97;11.57;;;;;;;25.51;14.32;99630.94;6886707;28;20235;-73
2022/03/24 14:21:44;;;;;;;13.13;11.73;;;;;;;25.42;14.47;99615.25;6886711;28;20204;-73
2022/03/24 14:25:12;;;;;;;14.77;11.80;;;;;;;24.79;14.57;99627.75;6886819;28;20219;-73
2022/03/24 14:28:47;;;;;;;13.27;11.97;;;;;;;24.65;13.79;99568.75;6886528;28;20211;-73
2022/03/24 14:32:12;;;;;;;12.63;11.43;;;;;;;24.91;13.96;99609.00;6886623;28;20209;-73
2022/03/24 14:35:34;;;;;;;12.70;11.40;;;;;;;25.01;13.30;99624.72;6891036;28;20268;-73
2022/03/24 14:39:13;;;;;;;12.73;11.10;;;;;;;25.53;13.51;99590.06;6891195;28;20216;-73
2022/03/24 14:42:36;;;;;;;12.57;11.27;;;;;;;25.52;13.43;99596.69;6891452;28;20667;-73
2022/03/24 14:45:59;;;;;;;14.13;12.10;;;;;;;24.47;13.91;99551.91;6890618;28;20209;-73
2022/03/24 14:49:21;;;;;;;12.60;11.30;;;;;;;24.81;13.91;99608.16;6891562;28;20210;-73
2022/03/24 14:52:42;;;;;;;14.27;11.27;;;;;;;25.03;13.77;99578.34;6890950;28;20216;-73
2022/03/24 14:56:05;;;;;;;12.07;10.97;;;;;;;24.76;14.13;99591.63;6890475;28;20228;-73
2022/03/24 14:59:27;;;;;;;12.63;11.33;;;;;;;24.99;14.78;99591.03;6891123;28;20212;-73
2022/03/24 15:02:51;;;;;;;14.03;11.60;;;;;;;25.20;14.09;99567.81;6890316;28;20239;-73
2022/03/24 15:06:13;;;;;;;14.30;11.63;;;;;;;25.21;14.04;99586.84;6890249;28;20209;-73
2022/03/24 15:09:35;;;;;;;13.63;12.00;;;;;;;25.00;15.02;99576.97;6890687;28;20212;-73
2022/03/24 15:12:57;;;;;;;13.13;11.83;;;;;;;24.59;15.39;99575.38;6890568;28;20211;-73
2022/03/24 15:16:18;;;;;;;16.23;12.90;;;;;;;24.51;15.48;99578.66;6890170;28;20476;-73
2022/03/24 15:19:42;;;;;;;14.10;11.97;;;;;;;23.90;15.55;99507.25;6890206;28;20235;-73
2022/03/24 15:23:04;;;;;;;14.00;11.60;;;;;;;24.42;14.83;99477.50;6890202;28;20216;-73
2022/03/24 15:26:26;;;;;;;12.93;11.57;;;;;;;24.17;14.48;99576.69;6890123;28;20209;-73
2022/03/24 15:29:48;;;;;;;12.53;11.20;;;;;;;24.32;14.86;99566.53;6889720;28;20209;-73
2022/03/24 15:33:10;;;;;;;13.40;12.00;;;;;;;23.95;15.40;99472.25;6890066;28;20299;-73
2022/03/24 15:36:33;;;;;;;11.80;10.60;;;;;;;24.39;14.93;99563.50;6889577;28;20326;-73
2022/03/24 15:39:55;;;;;;;12.83;10.23;;;;;;;24.85;14.47;99565.13;6889671;28;20223;-73
2022/03/24 15:43:17;;;;;;;13.40;11.30;;;;;;;24.30;14.14;99530.13;6889431;28;20582;-73
2022/03/24 15:46:39;;;;;;;13.03;11.73;;;;;;;24.28;14.51;99526.84;6889429;28;20207;-73
2022/03/24 15:50:00;;;;;;;13.90;12.37;;;;;;;24.61;14.15;99525.47;6889627;28;20214;-73
2022/03/24 15:53:24;;;;;;;13.40;10.00;;;;;;;24.84;13.84;99536.72;6889504;28;20232;-73
2022/03/24 15:56:45;;;;;;;10.70;9.63;;;;;;;24.19;13.52;99434.78;6888986;28;20231;-73
2022/03/24 16:00:09;;;;;;;11.87;9.20;;;;;;;25.03;13.82;99556.25;6905039;28;20216;-73
2022/03/24 16:03:31;;;;;;;10.53;9.43;;;;;;;24.19;13.06;99525.72;6915817;28;20227;-73
2022/03/24 16:06:55;;;;;;;10.83;9.37;;;;;;;24.08;13.41;99554.38;6914815;28;20578;-73